createdAt,value
2018-06-02T00:00:53.654Z,98786.20
2018-06-02T00:03:21.789Z,98786.11
2018-06-02T00:05:49.956Z,98783.00
2018-06-02T00:08:18.111Z,98780.17
2018-06-02T00:10:46.231Z,98783.60
2018-06-02T00:13:14.370Z,98779.42
2018-06-02T00:15:42.537Z,98785.15
2018-06-02T00:18:10.646Z,98776.77
2018-06-02T00:20:38.786Z,98786.41
2018-06-02T00:23:07.020Z,98783.30
2018-06-02T00:25:35.167Z,98783.48
2018-06-02T00:28:03.393Z,98778.72
2018-06-02T00:30:31.515Z,98779.08
2018-06-02T00:32:59.651Z,98784.14
2018-06-02T00:35:27.851Z,98774.95
2018-06-02T00:37:55.974Z,98770.81
2018-06-02T00:40:24.098Z,98775.61
2018-06-02T00:42:52.242Z,98784.39
2018-06-02T00:45:20.379Z,98778.13
2018-06-02T00:47:48.502Z,98776.89
2018-06-02T00:50:16.673Z,98778.12
2018-06-02T00:52:44.785Z,98766.30
2018-06-02T00:55:12.925Z,98764.48
2018-06-02T00:57:41.109Z,98773.81
2018-06-02T01:00:09.240Z,98770.82
2018-06-02T01:02:37.385Z,98762.39
2018-06-02T01:05:05.614Z,98761.95
2018-06-02T01:07:33.731Z,98764.86
2018-06-02T01:10:01.860Z,98773.57
2018-06-02T01:12:30.009Z,98768.76
2018-06-02T01:14:58.171Z,98767.80
2018-06-02T01:17:26.289Z,98764.56
2018-06-02T01:19:54.615Z,98771.44
2018-06-02T01:22:22.736Z,98773.86
2018-06-02T01:24:50.864Z,98771.36
2018-06-02T01:27:19.009Z,98771.19
2018-06-02T01:29:47.127Z,98771.64
2018-06-02T01:32:15.248Z,98765.48
2018-06-02T01:34:43.391Z,98762.16
2018-06-02T01:37:11.524Z,98762.33
2018-06-02T01:39:39.646Z,98756.80
2018-06-02T01:42:07.781Z,98758.55
2018-06-02T01:44:35.926Z,98758.14
2018-06-02T01:47:04.053Z,98761.84
2018-06-02T01:49:32.194Z,98762.97
2018-06-02T01:52:00.308Z,98764.36
2018-06-02T01:54:28.438Z,98761.80
2018-06-02T01:56:56.576Z,98765.73
2018-06-02T01:59:24.703Z,98762.94
2018-06-02T02:01:52.871Z,98762.53
2018-06-02T02:04:21.024Z,98751.86
2018-06-02T02:06:49.135Z,98759.19
2018-06-02T02:09:17.287Z,98760.83
2018-06-02T02:11:45.435Z,98760.96
2018-06-02T02:14:13.568Z,98765.95
2018-06-02T02:16:41.686Z,98760.63
2018-06-02T02:19:09.850Z,98765.64
2018-06-02T02:21:37.985Z,98769.78
2018-06-02T02:24:06.127Z,98763.37
2018-06-02T02:26:34.247Z,98762.52
2018-06-02T02:29:02.354Z,98764.36
2018-06-02T02:31:30.472Z,98765.52
2018-06-02T02:33:58.612Z,98765.66
2018-06-02T02:36:26.738Z,98763.67
2018-06-02T02:38:54.867Z,98770.58
2018-06-02T02:41:23.021Z,98775.63
2018-06-02T02:43:51.142Z,98778.61
2018-06-02T02:46:19.288Z,98778.88
2018-06-02T02:48:47.459Z,98779.54
2018-06-02T02:51:15.600Z,98776.13
2018-06-02T02:53:43.769Z,98778.69
2018-06-02T02:56:11.985Z,98778.23
2018-06-02T02:58:40.108Z,98784.72
2018-06-02T03:01:08.230Z,98787.60
2018-06-02T03:03:36.380Z,98786.78
2018-06-02T03:06:04.504Z,98786.68
2018-06-02T03:08:32.631Z,98783.62
2018-06-02T03:11:00.813Z,98780.32
2018-06-02T03:13:28.943Z,98782.98
2018-06-02T03:15:57.055Z,98781.98
2018-06-02T03:18:25.197Z,98780.34
2018-06-02T03:20:53.297Z,98781.13
2018-06-02T03:23:21.416Z,98785.89
2018-06-02T03:25:49.560Z,98785.67
2018-06-02T03:28:17.688Z,98791.30
2018-06-02T03:30:45.800Z,98789.70
2018-06-02T03:33:13.938Z,98794.60
2018-06-02T03:35:42.060Z,98796.11
2018-06-02T03:38:10.165Z,98794.52
2018-06-02T03:40:38.297Z,98802.52
2018-06-02T03:43:06.453Z,98806.19
2018-06-02T03:45:34.569Z,98806.98
2018-06-02T03:48:02.717Z,98806.32
2018-06-02T03:50:30.838Z,98802.76
2018-06-02T03:52:58.974Z,98802.83
2018-06-02T03:55:27.103Z,98807.26
2018-06-02T03:57:55.226Z,98804.98
2018-06-02T04:00:23.365Z,98810.72
2018-06-02T04:02:51.566Z,98814.52
2018-06-02T04:05:19.686Z,98818.73
2018-06-02T04:07:47.803Z,98816.08
2018-06-02T04:10:15.935Z,98819.15
2018-06-02T04:12:44.033Z,98818.89
2018-06-02T04:15:12.181Z,98818.75
2018-06-02T04:17:40.341Z,98816.98
2018-06-02T04:20:08.443Z,98814.59
2018-06-02T04:22:36.558Z,98816.04
2018-06-02T04:25:04.680Z,98817.11
2018-06-02T04:27:32.852Z,98824.57
2018-06-02T04:30:00.981Z,98824.57
2018-06-02T04:32:29.204Z,98824.48
2018-06-02T04:34:57.321Z,98824.95
2018-06-02T04:37:25.437Z,98822.13
2018-06-02T04:39:53.587Z,98828.00
2018-06-02T04:42:21.708Z,98824.00
2018-06-02T04:44:49.850Z,98823.66
2018-06-02T04:47:18.865Z,98828.41
2018-06-02T04:49:46.984Z,98828.98
2018-06-02T04:52:15.148Z,98830.48
2018-06-02T04:54:43.266Z,98827.52
2018-06-02T04:57:11.406Z,98827.17
2018-06-02T04:59:39.527Z,98830.48
2018-06-02T05:02:08.567Z,98826.59
2018-06-02T05:04:36.701Z,98823.34
2018-06-02T05:07:04.873Z,98832.81
2018-06-02T05:09:33.033Z,98834.43
2018-06-02T05:12:01.171Z,98839.84
2018-06-02T05:14:29.272Z,98840.39
2018-06-02T05:16:57.404Z,98844.72
2018-06-02T05:19:25.526Z,98840.43
2018-06-02T05:21:53.723Z,98843.48
2018-06-02T05:24:21.891Z,98838.95
2018-06-02T05:26:50.018Z,98841.06
2018-06-02T05:29:18.138Z,98852.88
2018-06-02T05:31:46.265Z,98846.62
2018-06-02T05:34:14.402Z,98853.62
2018-06-02T05:36:42.566Z,98853.22
2018-06-02T05:39:10.718Z,98855.53
2018-06-02T05:41:38.843Z,98859.85
2018-06-02T05:44:06.999Z,98864.14
2018-06-02T05:46:35.129Z,98852.17
2018-06-02T05:49:03.251Z,98851.08
2018-06-02T05:51:31.341Z,98856.82
2018-06-02T05:53:59.481Z,98861.25
2018-06-02T05:56:27.586Z,98862.12
2018-06-02T05:58:55.727Z,98866.16
2018-06-02T06:01:23.879Z,98873.28
2018-06-02T06:03:52.010Z,98870.98
2018-06-02T06:06:20.126Z,98873.42
2018-06-02T06:08:48.259Z,98874.41
2018-06-02T06:11:16.391Z,98889.57
2018-06-02T06:13:46.579Z,98885.16
2018-06-02T06:16:14.705Z,98886.86
2018-06-02T06:18:43.038Z,98884.47
2018-06-02T06:21:11.162Z,98882.41
2018-06-02T06:23:39.293Z,98883.71
2018-06-02T06:26:07.445Z,98883.70
2018-06-02T06:28:35.581Z,98889.38
2018-06-02T06:31:03.782Z,98890.64
2018-06-02T06:33:31.875Z,98898.08
2018-06-02T06:36:00.010Z,98895.77
2018-06-02T06:38:28.247Z,98903.21
2018-06-02T06:40:56.426Z,98908.11
2018-06-02T06:43:24.534Z,98915.42
2018-06-02T06:45:52.695Z,98914.86
2018-06-02T06:48:20.832Z,98921.91
2018-06-02T06:50:48.980Z,98922.30
2018-06-02T06:53:17.127Z,98923.59
2018-06-02T06:55:45.237Z,98923.67
2018-06-02T06:58:13.429Z,98932.78
2018-06-02T07:00:41.566Z,98939.06
2018-06-02T07:03:09.680Z,98937.80
2018-06-02T07:05:37.843Z,98933.23
2018-06-02T07:08:06.631Z,98922.58
2018-06-02T07:10:34.791Z,98941.45
2018-06-02T07:13:02.978Z,98944.66
2018-06-02T07:15:31.138Z,98949.41
2018-06-02T07:17:59.299Z,98943.02
2018-06-02T07:20:27.471Z,98952.74
2018-06-02T07:22:55.616Z,98952.61
2018-06-02T07:25:23.768Z,98949.31
2018-06-02T07:27:52.032Z,98951.94
2018-06-02T07:30:20.187Z,98954.00
2018-06-02T07:32:49.065Z,98956.77
2018-06-02T07:35:17.781Z,98949.56
2018-06-02T07:37:45.928Z,98951.00
2018-06-02T07:40:14.082Z,98948.34
2018-06-02T07:42:42.699Z,98946.62
2018-06-02T07:45:10.849Z,98950.45
2018-06-02T07:47:38.980Z,98953.47
2018-06-02T07:50:07.172Z,98959.05
2018-06-02T07:52:35.292Z,98953.06
2018-06-02T07:55:03.411Z,98955.98
2018-06-02T07:57:31.552Z,98959.81
2018-06-02T07:59:59.643Z,98958.15
2018-06-02T08:02:27.781Z,98959.50
2018-06-02T08:04:55.904Z,98961.08
2018-06-02T08:07:24.038Z,98968.83
2018-06-02T08:09:52.198Z,98966.16
2018-06-02T08:12:20.316Z,98962.52
2018-06-02T08:14:48.433Z,98967.07
2018-06-02T08:17:16.571Z,98961.66
2018-06-02T08:19:44.810Z,98967.73
2018-06-02T08:22:12.966Z,98967.61
2018-06-02T08:24:45.571Z,98966.31
2018-06-02T08:27:13.841Z,98972.34
2018-06-02T08:29:41.969Z,98965.83
2018-06-02T08:32:10.157Z,98964.96
2018-06-02T08:34:40.685Z,98962.63
2018-06-02T08:37:08.826Z,98963.84
2018-06-02T08:39:37.038Z,98967.31
2018-06-02T08:42:05.240Z,98960.64
2018-06-02T08:44:33.387Z,98962.94
2018-06-02T08:47:01.561Z,98964.28
2018-06-02T08:49:29.693Z,98955.00
2018-06-02T08:51:58.893Z,98963.39
2018-06-02T08:54:27.113Z,98960.62
2018-06-02T08:56:55.214Z,98958.31
2018-06-02T08:59:23.346Z,98963.09
2018-06-02T09:01:51.478Z,98959.09
2018-06-02T09:04:19.647Z,98961.41
2018-06-02T09:06:47.871Z,98960.11
2018-06-02T09:09:16.061Z,98950.02
2018-06-02T09:11:44.205Z,98949.47
2018-06-02T09:14:12.405Z,98950.34
2018-06-02T09:16:40.534Z,98943.95
2018-06-02T09:19:08.694Z,98950.14
2018-06-02T09:21:37.786Z,98943.30
2018-06-02T09:24:06.042Z,98943.13
2018-06-02T09:26:34.285Z,98937.74
2018-06-02T09:29:02.419Z,98936.78
2018-06-02T09:31:30.581Z,98933.55
2018-06-02T09:33:58.687Z,98938.94
2018-06-02T09:36:26.825Z,98934.80
2018-06-02T09:38:54.962Z,98941.03
2018-06-02T09:41:23.092Z,98935.39
2018-06-02T09:43:51.226Z,98939.30
2018-06-02T09:46:19.390Z,98937.55
2018-06-02T09:48:47.583Z,98934.09
2018-06-02T09:51:15.686Z,98934.50
2018-06-02T09:53:43.871Z,98935.12
2018-06-02T09:56:12.016Z,98932.07
2018-06-02T09:58:40.253Z,98934.41
2018-06-02T10:01:08.487Z,98936.35
2018-06-02T10:03:36.660Z,98923.66
2018-06-02T10:06:04.836Z,98922.64
2018-06-02T10:08:33.879Z,98915.57
2018-06-02T10:11:02.141Z,98919.96
2018-06-02T10:13:30.309Z,98917.11
2018-06-02T10:15:58.484Z,98912.05
2018-06-02T10:18:26.601Z,98912.14
2018-06-02T10:20:55.696Z,98911.55
2018-06-02T10:23:23.902Z,98908.59
2018-06-02T10:25:54.945Z,98911.87
2018-06-02T10:28:25.053Z,98909.38
2018-06-02T10:30:53.299Z,98912.98
2018-06-02T10:33:21.423Z,98910.73
2018-06-02T10:35:49.542Z,98915.64
2018-06-02T10:38:17.678Z,98911.53
2018-06-02T10:40:45.814Z,98912.35
2018-06-02T10:43:13.941Z,98908.84
2018-06-02T10:45:42.943Z,98904.50
2018-06-02T10:48:11.133Z,98910.09
2018-06-02T10:50:39.313Z,98902.87
2018-06-02T10:53:07.494Z,98902.97
2018-06-02T10:55:35.654Z,98907.20
2018-06-02T10:58:04.419Z,98896.73
2018-06-02T11:00:32.626Z,98899.23
2018-06-02T11:03:00.766Z,98898.87
2018-06-02T11:05:28.951Z,98892.02
2018-06-02T11:07:57.100Z,98885.64
2018-06-02T11:10:26.235Z,98881.70
2018-06-02T11:12:54.431Z,98877.91
2018-06-02T11:15:22.606Z,98873.29
2018-06-02T11:17:50.715Z,98874.20
2018-06-02T11:20:20.449Z,98862.19
2018-06-02T11:22:50.348Z,98856.72
2018-06-02T11:25:19.330Z,98855.65
2018-06-02T11:27:47.521Z,98842.28
2018-06-02T11:30:15.682Z,98834.19
2018-06-02T11:32:44.026Z,98836.30
2018-06-02T11:35:12.286Z,98828.21
2018-06-02T11:37:40.411Z,98824.32
2018-06-02T11:40:08.664Z,98824.38
2018-06-02T11:42:36.917Z,98816.34
2018-06-02T11:45:06.120Z,98820.78
2018-06-02T11:47:34.242Z,98812.66
2018-06-02T11:50:02.406Z,98804.28
2018-06-02T11:52:30.578Z,98808.59
2018-06-02T11:55:00.978Z,98806.66
2018-06-02T11:57:29.106Z,98811.94
2018-06-02T11:59:57.251Z,98803.20
2018-06-02T12:02:26.640Z,98798.77
2018-06-02T12:05:10.314Z,98792.73
2018-06-02T12:07:40.158Z,98790.49
2018-06-02T12:10:09.167Z,98784.78
2018-06-02T12:12:37.331Z,98790.14
2018-06-02T12:15:05.510Z,98779.03
2018-06-02T12:17:33.935Z,98771.95
2018-06-02T12:20:02.068Z,98765.01
2018-06-02T12:22:30.226Z,98761.13
2018-06-02T12:24:58.413Z,98763.03
2018-06-02T12:27:26.536Z,98766.66
2018-06-02T12:29:54.705Z,98753.37
2018-06-02T12:32:22.835Z,98755.58
2018-06-02T12:34:51.505Z,98756.59
2018-06-02T12:37:19.623Z,98756.91
2018-06-02T12:39:47.806Z,98754.50
2018-06-02T12:42:15.950Z,98753.28
2018-06-02T12:44:44.094Z,98743.37
2018-06-02T12:47:12.229Z,98745.58
2018-06-02T12:49:40.486Z,98741.37
2018-06-02T12:52:08.620Z,98738.94
2018-06-02T12:54:36.825Z,98735.56
2018-06-02T12:57:04.970Z,98725.77
2018-06-02T12:59:33.137Z,98721.33
2018-06-02T13:02:01.254Z,98715.48
2018-06-02T13:04:29.426Z,98706.30
2018-06-02T13:06:58.307Z,98706.34
2018-06-02T13:09:26.487Z,98709.89
2018-06-02T13:11:54.629Z,98705.18
2018-06-02T13:14:22.773Z,98707.28
2018-06-02T13:16:50.909Z,98706.22
2018-06-02T13:19:19.099Z,98698.59
2018-06-02T13:21:51.385Z,98686.66
2018-06-02T13:24:20.160Z,98692.62
2018-06-02T13:26:48.281Z,98686.48
2018-06-02T13:29:16.408Z,98689.66
2018-06-02T13:31:44.549Z,98683.38
2018-06-02T13:34:12.703Z,98683.81
2018-06-02T13:36:40.841Z,98680.45
2018-06-02T13:39:08.981Z,98669.45
2018-06-02T13:41:37.843Z,98667.68
2018-06-02T13:44:05.987Z,98667.01
2018-06-02T13:46:35.086Z,98667.45
2018-06-02T13:49:03.389Z,98661.31
2018-06-02T13:51:31.623Z,98656.07
2018-06-02T13:54:00.028Z,98650.81
2018-06-02T13:56:28.304Z,98640.35
2018-06-02T13:58:58.188Z,98646.21
2018-06-02T14:01:27.719Z,98642.35
2018-06-02T14:03:57.193Z,98642.28
2018-06-02T14:06:25.628Z,98641.63
2018-06-02T14:08:53.845Z,98641.55
2018-06-02T14:11:22.934Z,98645.92
2018-06-02T14:13:51.134Z,98629.14
2018-06-02T14:16:19.418Z,98629.36
2018-06-02T14:18:48.523Z,98630.99
2018-06-02T14:21:16.628Z,98633.14
2018-06-02T14:23:44.825Z,98619.03
2018-06-02T14:26:13.195Z,98615.80
2018-06-02T14:28:42.459Z,98618.14
2018-06-02T14:31:10.630Z,98612.63
2018-06-02T14:33:38.798Z,98612.27
2018-06-02T14:36:08.744Z,98610.47
2018-06-02T14:38:36.874Z,98608.29
2018-06-02T14:41:05.659Z,98611.24
2018-06-02T14:43:33.813Z,98609.38
2018-06-02T14:46:02.268Z,98617.09
2018-06-02T14:48:30.395Z,98611.38
2018-06-02T14:50:58.530Z,98616.91
2018-06-02T14:53:27.398Z,98613.67
2018-06-02T14:55:55.535Z,98616.95
2018-06-02T14:58:23.691Z,98619.25
2018-06-02T15:00:51.861Z,98607.27
2018-06-02T15:03:20.273Z,98608.84
2018-06-02T15:05:48.413Z,98597.72
2018-06-02T15:08:16.548Z,98591.55
2018-06-02T15:10:44.728Z,98582.68
2018-06-02T15:13:12.959Z,98581.04
2018-06-02T15:15:41.119Z,98573.50
2018-06-02T15:18:09.245Z,98574.63
2018-06-02T15:20:37.387Z,98565.59
2018-06-02T15:23:05.615Z,98575.19
2018-06-02T15:25:33.948Z,98573.89
2018-06-02T15:28:02.802Z,98578.54
2018-06-02T15:30:31.806Z,98584.14
2018-06-02T15:33:00.826Z,98586.20
2018-06-02T15:35:29.008Z,98588.20
2018-06-02T15:37:57.263Z,98602.16
2018-06-02T15:40:25.428Z,98596.27
2018-06-02T15:42:53.543Z,98593.34
2018-06-02T15:45:21.817Z,98589.48
2018-06-02T15:47:50.293Z,98584.88
2018-06-02T15:50:18.437Z,98577.97
2018-06-02T15:52:46.610Z,98589.70
2018-06-02T15:55:14.730Z,98583.66
2018-06-02T15:57:42.851Z,98589.39
2018-06-02T16:00:10.982Z,98588.62
2018-06-02T16:02:39.100Z,98589.88
2018-06-02T16:05:07.767Z,98585.77
2018-06-02T16:07:37.362Z,98586.66
2018-06-02T16:10:05.504Z,98578.45
2018-06-02T16:12:33.636Z,98579.08
2018-06-02T16:15:02.039Z,98582.28
2018-06-02T16:17:30.181Z,98578.52
2018-06-02T16:19:58.331Z,98586.39
2018-06-02T16:22:26.455Z,98583.14
2018-06-02T16:24:54.564Z,98579.33
2018-06-02T16:27:22.695Z,98581.72
2018-06-02T16:29:50.957Z,98576.19
2018-06-02T16:32:19.079Z,98577.89
2018-06-02T16:34:47.219Z,98578.44
2018-06-02T16:37:15.354Z,98581.16
2018-06-02T16:39:43.481Z,98589.38
2018-06-02T16:42:11.603Z,98590.01
2018-06-02T16:44:40.525Z,98582.10
2018-06-02T16:47:09.737Z,98581.16
2018-06-02T16:49:37.846Z,98587.29
2018-06-02T16:52:06.086Z,98589.05
2018-06-02T16:54:34.482Z,98591.27
2018-06-02T16:57:04.741Z,98592.55
2018-06-02T16:59:32.862Z,98589.52
2018-06-02T17:02:01.627Z,98592.52
2018-06-02T17:04:29.760Z,98585.59
2018-06-02T17:06:57.887Z,98588.80
2018-06-02T17:09:26.011Z,98579.03
2018-06-02T17:11:54.144Z,98579.28
2018-06-02T17:14:29.209Z,98588.02
2018-06-02T17:16:57.646Z,98593.39
2018-06-02T17:19:28.130Z,98589.73
2018-06-02T17:21:56.240Z,98588.63
2018-06-02T17:24:24.497Z,98592.65
2018-06-02T17:26:52.623Z,98593.38
2018-06-02T17:29:21.341Z,98599.27
2018-06-02T17:31:49.517Z,98598.84
2018-06-02T17:34:18.463Z,98595.01
2018-06-02T17:36:46.594Z,98596.83
2018-06-02T17:39:14.729Z,98599.11
2018-06-02T17:41:43.675Z,98599.37
2018-06-02T17:44:11.799Z,98598.72
2018-06-02T17:46:39.939Z,98596.86
2018-06-02T17:49:08.199Z,98597.82
2018-06-02T17:51:36.368Z,98602.02
2018-06-02T17:54:05.099Z,98601.78
2018-06-02T17:56:33.209Z,98600.71
2018-06-02T17:59:01.364Z,98602.12
2018-06-02T18:01:29.511Z,98603.41
2018-06-02T18:04:00.967Z,98606.45
2018-06-02T18:06:29.105Z,98603.86
2018-06-02T18:08:57.255Z,98596.45
2018-06-02T18:11:25.368Z,98598.31
2018-06-02T18:13:53.822Z,98589.83
2018-06-02T18:16:21.989Z,98592.72
2018-06-02T18:18:50.875Z,98593.54
2018-06-02T18:21:19.059Z,98597.13
2018-06-02T18:23:49.586Z,98594.95
2018-06-02T18:26:18.757Z,98601.63
2018-06-02T18:28:46.883Z,98600.98
2018-06-02T18:31:14.991Z,98599.92
2018-06-02T18:33:43.146Z,98603.67
2018-06-02T18:36:11.278Z,98609.44
2018-06-02T18:38:41.119Z,98607.97
2018-06-02T18:41:09.242Z,98610.81
2018-06-02T18:43:38.859Z,98620.56
2018-06-02T18:46:06.990Z,98617.77
2018-06-02T18:48:35.826Z,98626.56
2018-06-02T18:51:06.047Z,98628.58
2018-06-02T18:53:34.329Z,98629.87
2018-06-02T18:56:02.447Z,98636.80
2018-06-02T18:58:32.015Z,98634.97
2018-06-02T19:01:00.167Z,98645.23
2018-06-02T19:03:30.820Z,98648.75
2018-06-02T19:05:59.966Z,98655.05
2018-06-02T19:08:28.583Z,98659.77
2018-06-02T19:10:57.072Z,98661.24
2018-06-02T19:13:25.193Z,98665.00
2018-06-02T19:15:58.140Z,98667.66
2018-06-02T19:18:27.169Z,98676.14
2018-06-02T19:20:55.280Z,98682.78
2018-06-02T19:23:23.506Z,98687.02
2018-06-02T19:25:51.669Z,98685.75
2018-06-02T19:28:19.793Z,98692.52
2018-06-02T19:30:47.930Z,98699.33
2018-06-02T19:33:17.746Z,98700.59
2018-06-02T19:35:46.527Z,98700.94
2018-06-02T19:38:14.925Z,98699.74
2018-06-02T19:40:43.111Z,98708.97
2018-06-02T19:43:11.276Z,98706.83
2018-06-02T19:45:39.446Z,98706.91
2018-06-02T19:48:07.611Z,98713.89
2018-06-02T19:50:37.426Z,98711.59
2018-06-02T19:53:06.605Z,98722.95
2018-06-02T19:55:34.799Z,98725.70
2018-06-02T19:58:02.923Z,98726.03
2018-06-02T20:00:31.059Z,98724.42
2018-06-02T20:02:59.189Z,98725.23
2018-06-02T20:05:28.252Z,98731.86
2018-06-02T20:07:57.749Z,98733.07
2018-06-02T20:10:27.386Z,98736.88
2018-06-02T20:12:57.964Z,98735.09
2018-06-02T20:15:26.828Z,98736.00
2018-06-02T20:17:55.942Z,98733.36
2018-06-02T20:20:24.141Z,98739.40
2018-06-02T20:22:52.695Z,98731.25
2018-06-02T20:25:20.833Z,98734.59
2018-06-02T20:27:48.967Z,98733.45
2018-06-02T20:30:17.091Z,98726.88
2018-06-02T20:32:46.276Z,98719.98
2018-06-02T20:35:14.600Z,98717.88
2018-06-02T20:37:43.296Z,98714.97
2018-06-02T20:40:11.453Z,98715.22
2018-06-02T20:42:39.589Z,98716.46
2018-06-02T20:45:08.574Z,98719.64
2018-06-02T20:47:36.789Z,98724.58
2018-06-02T20:50:05.195Z,98716.19
2018-06-02T20:52:33.313Z,98720.72
2018-06-02T20:55:01.443Z,98720.06
2018-06-02T20:57:29.608Z,98726.76
2018-06-02T20:59:57.781Z,98723.44
2018-06-02T21:02:26.933Z,98725.06
2018-06-02T21:04:56.291Z,98728.42
2018-06-02T21:07:24.432Z,98728.92
2018-06-02T21:09:53.323Z,98736.13
2018-06-02T21:12:22.386Z,98729.55
2018-06-02T21:14:50.532Z,98728.52
2018-06-02T21:17:18.661Z,98731.78
2018-06-02T21:19:46.801Z,98728.27
2018-06-02T21:22:16.076Z,98722.30
2018-06-02T21:24:44.201Z,98730.48
2018-06-02T21:27:13.458Z,98727.64
2018-06-02T21:29:42.121Z,98727.55
2018-06-02T21:32:10.298Z,98734.06
2018-06-02T21:34:38.423Z,98729.45
2018-06-02T21:37:06.611Z,98732.45
2018-06-02T21:39:34.762Z,98733.72
2018-06-02T21:42:02.904Z,98728.88
2018-06-02T21:44:31.038Z,98738.41
2018-06-02T21:46:59.310Z,98739.82
2018-06-02T21:49:27.461Z,98735.59
2018-06-02T21:51:55.584Z,98738.09
2018-06-02T21:54:23.733Z,98741.89
2018-06-02T21:56:51.849Z,98739.98
2018-06-02T21:59:19.994Z,98743.41
2018-06-02T22:01:49.023Z,98750.72
2018-06-02T22:04:17.258Z,98755.84
2018-06-02T22:06:45.518Z,98762.66
2018-06-02T22:09:13.726Z,98752.12
2018-06-02T22:11:41.892Z,98753.03
2018-06-02T22:14:10.089Z,98756.20
2018-06-02T22:16:38.249Z,98755.49
2018-06-02T22:19:06.512Z,98746.45
2018-06-02T22:21:34.648Z,98749.03
2018-06-02T22:24:02.778Z,98751.42
2018-06-02T22:26:30.903Z,98760.40
2018-06-02T22:28:59.027Z,98772.95
2018-06-02T22:31:27.146Z,98777.50
2018-06-02T22:33:55.311Z,98771.20
2018-06-02T22:36:23.442Z,98767.56
2018-06-02T22:38:52.245Z,98774.77
2018-06-02T22:41:20.390Z,98778.19
2018-06-02T22:43:48.526Z,98775.08
2018-06-02T22:46:16.676Z,98777.78
2018-06-02T22:48:44.897Z,98768.55
2018-06-02T22:51:13.018Z,98777.38
2018-06-02T22:53:41.182Z,98780.59
2018-06-02T22:56:09.306Z,98788.66
2018-06-02T22:58:37.468Z,98780.52
2018-06-02T23:01:05.587Z,98776.32
2018-06-02T23:03:33.699Z,98776.41
2018-06-02T23:06:01.866Z,98767.72
2018-06-02T23:08:30.001Z,98770.14
2018-06-02T23:10:58.185Z,98766.85
2018-06-02T23:13:26.313Z,98767.89
2018-06-02T23:15:54.466Z,98762.84
2018-06-02T23:18:22.601Z,98771.35
2018-06-02T23:20:50.742Z,98764.10
2018-06-02T23:23:18.883Z,98770.14
2018-06-02T23:25:47.033Z,98773.25
2018-06-02T23:28:15.161Z,98772.16
2018-06-02T23:30:43.315Z,98768.46
2018-06-02T23:33:11.427Z,98771.43
2018-06-02T23:35:39.556Z,98751.98
2018-06-02T23:38:07.705Z,98769.48
2018-06-02T23:40:35.844Z,98763.27
2018-06-02T23:43:04.054Z,98759.77
2018-06-02T23:45:32.154Z,98762.88
2018-06-02T23:48:00.279Z,98763.91
2018-06-02T23:50:28.547Z,98764.81
2018-06-02T23:52:56.663Z,98764.27
2018-06-02T23:55:24.801Z,98761.11
2018-06-02T23:57:52.947Z,98756.77
